Time,TemperatureF,DewpointF,PressureIn,WindDirection,WindDirectionDegrees,WindSpeedMPH,WindSpeedGustMPH,Humidity,HourlyPrecipIn,Conditions,Clouds,dailyrainin,SoftwareType,DateUTC
2013-05-08 00:01:00,55.3,50.2,30.10,North,8,1.0,3.0,83,0.00,,,0.00,Wunderground v.1.15,2013-05-08 04:01:00,
2013-05-08 00:02:00,55.4,50.6,30.10,SE,142,1.0,3.0,84,0.00,,,0.00,Wunderground v.1.15,2013-05-08 04:02:00,
2013-05-08 00:04:00,55.8,51.0,30.09,ESE,119,1.0,3.0,84,0.00,,,0.00,Wunderground v.1.15,2013-05-08 04:04:00,
2013-05-08 00:06:00,56.1,51.3,30.09,NNE,22,1.0,3.0,84,0.00,,,0.00,Wunderground v.1.15,2013-05-08 04:06:00,
2013-05-08 00:08:00,56.5,51.4,30.09,SE,132,1.0,3.0,83,0.00,,,0.00,Wunderground v.1.15,2013-05-08 04:08:00,
2013-05-08 00:13:00,57.4,51.9,30.09,SSW,201,1.0,3.0,82,0.00,,,0.00,Wunderground v.1.15,2013-05-08 04:13:00,
2013-05-08 00:18:00,57.9,51.8,30.09,NE,41,2.0,3.0,80,0.00,,,0.00,Wunderground v.1.15,2013-05-08 04:18:00,
2013-05-08 00:24:00,58.3,51.8,30.09,WNW,290,2.0,4.0,79,0.00,,,0.00,Wunderground v.1.15,2013-05-08 04:24:00,
2013-05-08 00:29:00,58.2,51.7,30.09,SSW,203,2.0,4.0,79,0.00,,,0.00,Wunderground v.1.15,2013-05-08 04:29:00,
2013-05-08 00:34:00,58.0,51.5,30.09,East,84,1.0,3.0,79,0.00,,,0.00,Wunderground v.1.15,2013-05-08 04:34:00,
2013-05-08 00:39:00,57.6,51.1,30.09,NNW,333,1.0,3.0,79,0.00,,,0.00,Wunderground v.1.15,2013-05-08 04:39:00,
2013-05-08 00:44:00,57.5,51.0,30.09,SW,231,1.0,1.0,79,0.00,,,0.00,Wunderground v.1.15,2013-05-08 04:44:00,
2013-05-08 00:50:00,57.8,51.3,30.09,SSE,160,1.0,1.0,79,0.00,,,0.00,Wunderground v.1.15,2013-05-08 04:50:00,
2013-05-08 00:55:00,57.7,51.2,30.09,NE,41,2.0,2.0,79,0.00,,,0.00,Wunderground v.1.15,2013-05-08 04:55:00,
2013-05-08 01:00:00,57.8,51.3,30.08,ESE,108,1.0,1.0,79,0.00,,,0.00,Wunderground v.1.15,2013-05-08 05:00:00,
2013-05-08 01:05:00,57.7,51.2,30.09,South,184,1.0,1.0,79,0.00,,,0.00,Wunderground v.1.15,2013-05-08 05:05:00,
2013-05-08 01:10:00,57.5,51.0,30.08,East,101,0.0,1.0,79,0.00,,,0.00,Wunderground v.1.15,2013-05-08 05:10:00,
2013-05-08 01:16:00,57.5,51.4,30.08,ENE,71,1.0,2.0,80,0.00,,,0.00,Wunderground v.1.15,2013-05-08 05:16:00,
2013-05-08 01:21:00,57.4,51.3,30.08,SSW,212,1.0,2.0,80,0.00,,,0.00,Wunderground v.1.15,2013-05-08 05:21:00,
2013-05-08 01:26:00,57.4,51.6,30.08,ESE,120,1.0,2.0,81,0.00,,,0.00,Wunderground v.1.15,2013-05-08 05:26:00,
2013-05-08 01:31:00,57.3,51.5,30.07,East,89,1.0,1.0,81,0.00,,,0.00,Wunderground v.1.15,2013-05-08 05:31:00,
2013-05-08 01:36:00,57.1,51.3,30.07,ENE,70,1.0,1.0,81,0.00,,,0.00,Wunderground v.1.15,2013-05-08 05:36:00,
2013-05-08 01:42:00,57.1,51.3,30.07,ESE,105,1.0,3.0,81,0.00,,,0.00,Wunderground v.1.15,2013-05-08 05:42:00,
2013-05-08 01:47:00,57.2,51.4,30.07,East,79,2.0,3.0,81,0.00,,,0.00,Wunderground v.1.15,2013-05-08 05:47:00,
2013-05-08 01:52:00,57.1,51.3,30.06,ENE,78,1.0,1.0,81,0.00,,,0.00,Wunderground v.1.15,2013-05-08 05:52:00,
2013-05-08 01:57:00,57.0,51.2,30.06,ENE,78,0.0,1.0,81,0.00,,,0.00,Wunderground v.1.15,2013-05-08 05:57:00,
2013-05-08 02:02:00,56.7,50.9,30.06,ENE,78,0.0,1.0,81,0.00,,,0.00,Wunderground v.1.15,2013-05-08 06:02:00,
2013-05-08 02:08:00,56.5,51.1,30.06,ENE,78,0.0,1.0,82,0.00,,,0.00,Wunderground v.1.15,2013-05-08 06:08:00,
2013-05-08 02:13:00,56.2,50.8,30.06,ENE,78,0.0,1.0,82,0.00,,,0.00,Wunderground v.1.15,2013-05-08 06:13:00,
2013-05-08 02:18:00,55.9,50.8,30.06,ENE,75,0.0,2.0,83,0.00,,,0.00,Wunderground v.1.15,2013-05-08 06:18:00,
2013-05-08 02:23:00,55.5,50.7,30.06,ENE,73,0.0,1.0,84,0.00,,,0.00,Wunderground v.1.15,2013-05-08 06:23:00,
2013-05-08 02:28:00,55.4,50.6,30.05,ENE,74,0.0,1.0,84,0.00,,,0.00,Wunderground v.1.15,2013-05-08 06:28:00,
2013-05-08 02:33:00,55.1,50.7,30.05,ENE,74,0.0,1.0,85,0.00,,,0.00,Wunderground v.1.15,2013-05-08 06:33:00,
2013-05-08 02:39:00,54.8,50.7,30.05,ENE,75,0.0,1.0,86,0.00,,,0.00,Wunderground v.1.15,2013-05-08 06:39:00,
2013-05-08 02:44:00,54.4,50.3,30.06,ENE,75,0.0,1.0,86,0.00,,,0.00,Wunderground v.1.15,2013-05-08 06:44:00,
2013-05-08 02:49:00,54.3,50.5,30.06,ENE,75,0.0,1.0,87,0.00,,,0.00,Wunderground v.1.15,2013-05-08 06:49:00,
2013-05-08 02:54:00,54.0,50.2,30.06,ENE,75,0.0,1.0,87,0.00,,,0.00,Wunderground v.1.15,2013-05-08 06:54:00,
2013-05-08 02:59:00,54.1,50.6,30.06,ENE,75,0.0,1.0,88,0.00,,,0.00,Wunderground v.1.15,2013-05-08 06:59:00,
2013-05-08 03:04:00,54.1,50.3,30.06,ENE,75,0.0,1.0,87,0.00,,,0.00,Wunderground v.1.15,2013-05-08 07:04:00,
2013-05-08 03:09:00,54.0,50.5,30.06,ENE,75,0.0,1.0,88,0.00,,,0.00,Wunderground v.1.15,2013-05-08 07:09:00,
2013-05-08 03:14:00,53.8,50.3,30.06,ENE,75,0.0,1.0,88,0.00,,,0.00,Wunderground v.1.15,2013-05-08 07:14:00,
2013-05-08 03:19:00,53.8,50.3,30.06,SE,131,0.0,1.0,88,0.00,,,0.00,Wunderground v.1.15,2013-05-08 07:19:00,
2013-05-08 03:24:00,53.8,50.3,30.07,SE,131,0.0,1.0,88,0.00,,,0.00,Wunderground v.1.15,2013-05-08 07:24:00,
2013-05-08 03:30:00,54.0,50.8,30.06,SE,131,0.0,1.0,89,0.00,,,0.00,Wunderground v.1.15,2013-05-08 07:30:00,
2013-05-08 03:35:00,54.1,50.6,30.06,SE,131,0.0,1.0,88,0.00,,,0.00,Wunderground v.1.15,2013-05-08 07:35:00,
2013-05-08 03:40:00,54.1,50.9,30.07,SW,225,0.0,1.0,89,0.00,,,0.00,Wunderground v.1.15,2013-05-08 07:40:00,
2013-05-08 03:45:00,54.2,50.7,30.06,WSW,243,0.0,1.0,88,0.00,,,0.00,Wunderground v.1.15,2013-05-08 07:45:00,
2013-05-08 03:50:00,54.4,50.9,30.07,WSW,255,0.0,1.0,88,0.00,,,0.00,Wunderground v.1.15,2013-05-08 07:50:00,
2013-05-08 03:56:00,54.5,51.0,30.06,NNE,22,0.0,2.0,88,0.00,,,0.00,Wunderground v.1.15,2013-05-08 07:56:00,
2013-05-08 04:01:00,54.4,50.9,30.06,NNE,22,0.0,1.0,88,0.00,,,0.00,Wunderground v.1.15,2013-05-08 08:01:00,
2013-05-08 04:06:00,54.4,50.9,30.06,NNE,21,0.0,1.0,88,0.00,,,0.00,Wunderground v.1.15,2013-05-08 08:06:00,
2013-05-08 04:11:00,54.3,50.8,30.06,NNE,22,0.0,1.0,88,0.00,,,0.00,Wunderground v.1.15,2013-05-08 08:11:00,
2013-05-08 04:16:00,54.2,50.7,30.06,NNE,22,0.0,1.0,88,0.00,,,0.00,Wunderground v.1.15,2013-05-08 08:16:00,
2013-05-08 04:22:00,54.1,50.6,30.06,NNE,22,0.0,1.0,88,0.00,,,0.00,Wunderground v.1.15,2013-05-08 08:22:00,
2013-05-08 04:27:00,54.0,50.8,30.05,NNE,20,0.0,1.0,89,0.00,,,0.00,Wunderground v.1.15,2013-05-08 08:27:00,
2013-05-08 04:32:00,54.0,50.8,30.05,NNE,20,0.0,1.0,89,0.00,,,0.00,Wunderground v.1.15,2013-05-08 08:32:00,
2013-05-08 04:37:00,53.8,50.6,30.05,NNE,20,0.0,1.0,89,0.00,,,0.00,Wunderground v.1.15,2013-05-08 08:37:00,
2013-05-08 04:42:00,53.6,50.4,30.05,NNE,22,0.0,1.0,89,0.00,,,0.00,Wunderground v.1.15,2013-05-08 08:42:00,
2013-05-08 04:48:00,53.5,50.3,30.05,NNE,22,0.0,1.0,89,0.00,,,0.00,Wunderground v.1.15,2013-05-08 08:48:00,
2013-05-08 04:53:00,53.3,50.1,30.06,NNE,20,0.0,1.0,89,0.00,,,0.00,Wunderground v.1.15,2013-05-08 08:53:00,
2013-05-08 04:58:00,53.3,50.4,30.06,West,266,0.0,1.0,90,0.00,,,0.00,Wunderground v.1.15,2013-05-08 08:58:00,
2013-05-08 05:03:00,53.5,50.3,30.06,West,266,0.0,1.0,89,0.00,,,0.00,Wunderground v.1.15,2013-05-08 09:03:00,
2013-05-08 05:08:00,53.5,50.3,30.06,West,267,0.0,1.0,89,0.00,,,0.00,Wunderground v.1.15,2013-05-08 09:08:00,
2013-05-08 05:14:00,53.5,50.3,30.06,West,266,0.0,1.0,89,0.00,,,0.00,Wunderground v.1.15,2013-05-08 09:14:00,
2013-05-08 05:19:00,53.6,50.7,30.06,West,266,0.0,1.0,90,0.00,,,0.00,Wunderground v.1.15,2013-05-08 09:19:00,
2013-05-08 05:24:00,53.6,50.7,30.06,WSW,256,0.0,1.0,90,0.00,,,0.00,Wunderground v.1.15,2013-05-08 09:24:00,
2013-05-08 05:29:00,53.9,51.0,30.06,WNW,300,0.0,1.0,90,0.00,,,0.00,Wunderground v.1.15,2013-05-08 09:29:00,
2013-05-08 05:34:00,54.0,50.8,30.06,NNW,329,0.0,1.0,89,0.00,,,0.00,Wunderground v.1.15,2013-05-08 09:34:00,
2013-05-08 05:40:00,54.2,51.3,30.06,East,88,1.0,1.0,90,0.00,,,0.00,Wunderground v.1.15,2013-05-08 09:40:00,
2013-05-08 05:45:00,54.3,51.1,30.06,SE,125,1.0,3.0,89,0.00,,,0.00,Wunderground v.1.15,2013-05-08 09:45:00,
2013-05-08 05:50:00,54.5,51.3,30.06,ENE,60,0.0,3.0,89,0.00,,,0.00,Wunderground v.1.15,2013-05-08 09:50:00,
2013-05-08 05:55:00,55.0,51.5,30.06,ENE,74,1.0,3.0,88,0.00,,,0.00,Wunderground v.1.15,2013-05-08 09:55:00,
2013-05-08 06:00:00,55.1,51.6,30.06,ENE,64,2.0,2.0,88,0.00,,,0.00,Wunderground v.1.15,2013-05-08 10:00:00,
2013-05-08 06:06:00,55.2,51.7,30.06,ENE,77,1.0,3.0,88,0.00,,,0.00,Wunderground v.1.15,2013-05-08 10:06:00,
2013-05-08 06:11:00,55.1,51.6,30.05,ENE,58,1.0,1.0,88,0.00,,,0.00,Wunderground v.1.15,2013-05-08 10:11:00,
2013-05-08 06:16:00,55.0,51.5,30.06,ENE,68,1.0,2.0,88,0.00,,,0.00,Wunderground v.1.15,2013-05-08 10:16:00,
2013-05-08 06:21:00,55.1,51.9,30.06,ENE,68,1.0,3.0,89,0.00,,,0.00,Wunderground v.1.15,2013-05-08 10:21:00,
2013-05-08 06:26:00,55.5,52.0,30.06,ENE,58,2.0,3.0,88,0.00,,,0.00,Wunderground v.1.15,2013-05-08 10:26:00,
2013-05-08 06:31:00,55.6,52.1,30.06,ENE,72,2.0,3.0,88,0.00,,,0.00,Wunderground v.1.15,2013-05-08 10:31:00,
2013-05-08 06:36:00,55.6,51.8,30.06,ENE,71,1.0,3.0,87,0.00,,,0.00,Wunderground v.1.15,2013-05-08 10:36:00,
2013-05-08 06:41:00,55.8,52.3,30.06,East,79,1.0,1.0,88,0.00,,,0.00,Wunderground v.1.15,2013-05-08 10:41:00,
2013-05-08 06:46:00,55.9,52.1,30.06,ESE,115,1.0,3.0,87,0.00,,,0.00,Wunderground v.1.15,2013-05-08 10:46:00,
2013-05-08 06:51:00,56.2,52.4,30.06,ENE,65,2.0,2.0,87,0.00,,,0.00,Wunderground v.1.15,2013-05-08 10:51:00,
2013-05-08 06:56:00,56.3,52.2,30.07,NE,54,2.0,4.0,86,0.00,,,0.00,Wunderground v.1.15,2013-05-08 10:56:00,
2013-05-08 07:02:00,56.3,52.5,30.07,ENE,72,3.0,5.0,87,0.00,,,0.00,Wunderground v.1.15,2013-05-08 11:02:00,
2013-05-08 07:07:00,56.5,52.7,30.07,NE,51,2.0,5.0,87,0.00,,,0.00,Wunderground v.1.15,2013-05-08 11:07:00,
2013-05-08 07:12:00,56.7,52.6,30.07,East,79,2.0,5.0,86,0.00,,,0.00,Wunderground v.1.15,2013-05-08 11:12:00,
2013-05-08 07:17:00,56.8,52.7,30.07,ENE,73,3.0,5.0,86,0.00,,,0.00,Wunderground v.1.15,2013-05-08 11:17:00,
2013-05-08 07:22:00,57.1,53.0,30.07,ENE,73,3.0,5.0,86,0.00,,,0.00,Wunderground v.1.15,2013-05-08 11:22:00,
2013-05-08 07:28:00,57.5,53.3,30.07,ENE,72,2.0,5.0,86,0.00,,,0.00,Wunderground v.1.15,2013-05-08 11:28:00,
2013-05-08 07:33:00,57.6,53.1,30.07,East,86,3.0,5.0,85,0.00,,,0.00,Wunderground v.1.15,2013-05-08 11:33:00,
2013-05-08 07:38:00,57.8,53.3,30.07,East,90,2.0,5.0,85,0.00,,,0.00,Wunderground v.1.15,2013-05-08 11:38:00,
2013-05-08 07:43:00,58.0,53.5,30.07,ENE,75,2.0,5.0,85,0.00,,,0.00,Wunderground v.1.15,2013-05-08 11:43:00,
2013-05-08 07:48:00,58.2,53.7,30.07,ENE,72,2.0,5.0,85,0.00,,,0.00,Wunderground v.1.15,2013-05-08 11:48:00,
2013-05-08 07:54:00,58.5,54.0,30.07,East,82,2.0,5.0,85,0.00,,,0.00,Wunderground v.1.15,2013-05-08 11:54:00,
2013-05-08 07:59:00,58.6,54.1,30.07,NNE,31,2.0,5.0,85,0.00,,,0.00,Wunderground v.1.15,2013-05-08 11:59:00,
2013-05-08 08:04:00,58.9,54.4,30.07,ENE,75,2.0,5.0,85,0.00,,,0.00,Wunderground v.1.15,2013-05-08 12:04:00,
2013-05-08 08:09:00,58.8,54.3,30.08,North,351,2.0,5.0,85,0.00,,,0.00,Wunderground v.1.15,2013-05-08 12:09:00,
2013-05-08 08:14:00,59.0,54.5,30.08,East,96,2.0,5.0,85,0.00,,,0.00,Wunderground v.1.15,2013-05-08 12:14:00,
2013-05-08 08:20:00,59.7,55.2,30.08,ENE,65,2.0,2.0,85,0.00,,,0.00,Wunderground v.1.15,2013-05-08 12:20:00,
2013-05-08 08:25:00,59.7,54.5,30.08,ENE,62,2.0,5.0,83,0.00,,,0.00,Wunderground v.1.15,2013-05-08 12:25:00,
2013-05-08 08:30:00,59.9,54.7,30.08,SW,231,2.0,2.0,83,0.00,,,0.00,Wunderground v.1.15,2013-05-08 12:30:00,
2013-05-08 08:35:00,59.9,54.7,30.08,ESE,115,2.0,5.0,83,0.00,,,0.00,Wunderground v.1.15,2013-05-08 12:35:00,
2013-05-08 08:40:00,59.9,54.7,30.08,SSW,211,2.0,2.0,83,0.00,,,0.00,Wunderground v.1.15,2013-05-08 12:40:00,
2013-05-08 08:46:00,59.5,54.7,30.08,ENE,68,2.0,5.0,84,0.00,,,0.00,Wunderground v.1.15,2013-05-08 12:46:00,
2013-05-08 08:51:00,59.3,54.5,30.08,ENE,67,2.0,5.0,84,0.00,,,0.00,Wunderground v.1.15,2013-05-08 12:51:00,
2013-05-08 08:56:00,59.2,54.7,30.08,East,84,2.0,5.0,85,0.00,,,0.00,Wunderground v.1.15,2013-05-08 12:56:00,
2013-05-08 09:01:00,59.7,55.5,30.08,ESE,108,2.0,5.0,86,0.00,,,0.00,Wunderground v.1.15,2013-05-08 13:01:00,
2013-05-08 09:06:00,60.0,55.5,30.07,ENE,77,2.0,5.0,85,0.00,,,0.00,Wunderground v.1.15,2013-05-08 13:06:00,
2013-05-08 09:12:00,60.4,55.5,30.07,South,181,2.0,5.0,84,0.00,,,0.00,Wunderground v.1.15,2013-05-08 13:12:00,
2013-05-08 09:17:00,60.8,55.6,30.07,ESE,105,2.0,5.0,83,0.00,,,0.00,Wunderground v.1.15,2013-05-08 13:17:00,
2013-05-08 09:22:00,60.9,55.7,30.07,ESE,115,2.0,5.0,83,0.00,,,0.00,Wunderground v.1.15,2013-05-08 13:22:00,
2013-05-08 09:27:00,60.8,55.9,30.07,SE,128,2.0,5.0,84,0.00,,,0.00,Wunderground v.1.15,2013-05-08 13:27:00,
2013-05-08 09:32:00,61.2,55.7,30.07,ESE,108,2.0,5.0,82,0.00,,,0.00,Wunderground v.1.15,2013-05-08 13:32:00,
2013-05-08 09:38:00,61.3,56.1,30.07,ENE,78,2.0,5.0,83,0.00,,,0.00,Wunderground v.1.15,2013-05-08 13:38:00,
2013-05-08 09:43:00,61.3,56.1,30.07,NE,56,2.0,5.0,83,0.00,,,0.00,Wunderground v.1.15,2013-05-08 13:43:00,
2013-05-08 09:48:00,61.0,55.8,30.07,ESE,120,2.0,5.0,83,0.00,,,0.00,Wunderground v.1.15,2013-05-08 13:48:00,
2013-05-08 09:53:00,60.8,55.6,30.07,SSE,150,1.0,5.0,83,0.00,,,0.00,Wunderground v.1.15,2013-05-08 13:53:00,
2013-05-08 09:58:00,60.8,55.6,30.07,East,82,1.0,5.0,83,0.00,,,0.00,Wunderground v.1.15,2013-05-08 13:58:00,
2013-05-08 10:03:00,60.9,55.7,30.07,East,87,2.0,5.0,83,0.00,,,0.00,Wunderground v.1.15,2013-05-08 14:03:00,
2013-05-08 10:08:00,61.0,55.8,30.07,East,91,2.0,5.0,83,0.00,,,0.00,Wunderground v.1.15,2013-05-08 14:08:00,
2013-05-08 10:13:00,61.2,56.0,30.07,South,173,1.0,5.0,83,0.00,,,0.00,Wunderground v.1.15,2013-05-08 14:13:00,
2013-05-08 10:18:00,61.3,55.4,30.06,ENE,65,1.0,5.0,81,0.00,,,0.00,Wunderground v.1.15,2013-05-08 14:18:00,
2013-05-08 10:23:00,61.1,55.2,30.06,ENE,65,2.0,5.0,81,0.00,,,0.00,Wunderground v.1.15,2013-05-08 14:23:00,
2013-05-08 10:28:00,61.1,55.2,30.06,South,173,3.0,5.0,81,0.00,,,0.00,Wunderground v.1.15,2013-05-08 14:28:00,
2013-05-08 10:34:00,61.1,55.6,30.06,ENE,78,2.0,5.0,82,0.00,,,0.00,Wunderground v.1.15,2013-05-08 14:34:00,
2013-05-08 10:39:00,61.0,55.8,30.06,SE,141,3.0,5.0,83,0.00,,,0.00,Wunderground v.1.15,2013-05-08 14:39:00,
2013-05-08 10:44:00,60.9,55.7,30.06,SE,141,3.0,5.0,83,0.00,,,0.00,Wunderground v.1.15,2013-05-08 14:44:00,
2013-05-08 10:49:00,61.1,55.9,30.06,ENE,67,3.0,5.0,83,0.00,,,0.00,Wunderground v.1.15,2013-05-08 14:49:00,
2013-05-08 10:54:00,61.4,55.9,30.06,East,88,3.0,5.0,82,0.00,,,0.00,Wunderground v.1.15,2013-05-08 14:54:00,
2013-05-08 11:00:00,61.6,56.0,30.05,ESE,110,3.0,5.0,82,0.00,,,0.00,Wunderground v.1.15,2013-05-08 15:00:00,
2013-05-08 11:05:00,62.1,56.5,30.05,East,89,3.0,5.0,82,0.00,,,0.00,Wunderground v.1.15,2013-05-08 15:05:00,
2013-05-08 11:10:00,62.4,56.5,30.05,East,100,2.0,2.0,81,0.00,,,0.00,Wunderground v.1.15,2013-05-08 15:10:00,
2013-05-08 11:15:00,62.2,56.3,30.06,NE,51,2.0,5.0,81,0.00,,,0.00,Wunderground v.1.15,2013-05-08 15:15:00,
2013-05-08 11:20:00,62.0,56.4,30.06,SSE,160,2.0,5.0,82,0.00,,,0.00,Wunderground v.1.15,2013-05-08 15:20:00,
2013-05-08 11:26:00,61.7,55.8,30.06,ENE,70,2.0,5.0,81,0.00,,,0.00,Wunderground v.1.15,2013-05-08 15:26:00,
2013-05-08 11:31:00,61.2,56.0,30.06,SE,128,3.0,5.0,83,0.00,,,0.00,Wunderground v.1.15,2013-05-08 15:31:00,
2013-05-08 11:36:00,60.3,55.4,30.06,East,95,4.0,7.0,84,0.00,,,0.00,Wunderground v.1.15,2013-05-08 15:36:00,
2013-05-08 11:41:00,59.7,55.8,30.06,SE,135,3.0,5.0,87,0.00,,,0.00,Wunderground v.1.15,2013-05-08 15:41:00,
2013-05-08 11:46:00,59.7,56.1,30.06,East,96,3.0,5.0,88,0.00,,,0.00,Wunderground v.1.15,2013-05-08 15:46:00,
2013-05-08 11:52:00,59.9,56.3,30.05,ENE,70,2.0,5.0,88,0.00,,,0.00,Wunderground v.1.15,2013-05-08 15:52:00,
2013-05-08 11:57:00,60.2,56.9,30.05,ENE,78,2.0,5.0,89,0.00,,,0.00,Wunderground v.1.15,2013-05-08 15:57:00,
2013-05-08 12:02:00,60.3,56.4,30.05,SE,127,2.0,5.0,87,0.00,,,0.00,Wunderground v.1.15,2013-05-08 16:02:00,
2013-05-08 12:07:00,60.2,56.0,30.04,ENE,71,3.0,5.0,86,0.00,,,0.00,Wunderground v.1.15,2013-05-08 16:07:00,
2013-05-08 12:12:00,60.1,56.2,30.04,ESE,120,2.0,5.0,87,0.00,,,0.00,Wunderground v.1.15,2013-05-08 16:12:00,
2013-05-08 12:18:00,60.1,55.9,30.04,East,91,2.0,5.0,86,0.00,,,0.00,Wunderground v.1.15,2013-05-08 16:18:00,
2013-05-08 12:23:00,60.3,56.7,30.04,SSE,165,2.0,5.0,88,0.00,,,0.00,Wunderground v.1.15,2013-05-08 16:23:00,
2013-05-08 12:28:00,60.6,57.0,30.04,East,84,1.0,5.0,88,0.00,,,0.00,Wunderground v.1.15,2013-05-08 16:28:00,
2013-05-08 12:33:00,60.7,56.8,30.04,SSW,205,1.0,5.0,87,0.00,,,0.00,Wunderground v.1.15,2013-05-08 16:33:00,
2013-05-08 12:38:00,60.7,57.1,30.04,ENE,73,1.0,5.0,88,0.00,,,0.00,Wunderground v.1.15,2013-05-08 16:38:00,
2013-05-08 12:44:00,60.8,57.2,30.03,ESE,111,2.0,5.0,88,0.00,,,0.00,Wunderground v.1.15,2013-05-08 16:44:00,
2013-05-08 12:49:00,61.2,57.6,30.03,SSW,195,2.0,5.0,88,0.00,,,0.00,Wunderground v.1.15,2013-05-08 16:49:00,
2013-05-08 12:54:00,61.3,57.4,30.03,ENE,63,2.0,5.0,87,0.00,,,0.00,Wunderground v.1.15,2013-05-08 16:54:00,
2013-05-08 12:59:00,61.0,56.8,30.03,East,93,2.0,5.0,86,0.00,,,0.00,Wunderground v.1.15,2013-05-08 16:59:00,
2013-05-08 13:04:00,60.7,56.5,30.03,ESE,113,3.0,5.0,86,0.00,,,0.00,Wunderground v.1.15,2013-05-08 17:04:00,
2013-05-08 13:10:00,60.4,56.5,30.03,ENE,68,3.0,3.0,87,0.00,,,0.00,Wunderground v.1.15,2013-05-08 17:10:00,
2013-05-08 13:15:00,60.2,56.6,30.03,SE,128,2.0,5.0,88,0.00,,,0.01,Wunderground v.1.15,2013-05-08 17:15:00,
2013-05-08 13:20:00,59.8,56.6,30.03,East,80,2.0,5.0,89,0.11,,,0.02,Wunderground v.1.15,2013-05-08 17:20:00,
2013-05-08 13:25:00,59.2,56.6,30.03,ESE,103,2.0,5.0,91,0.27,,,0.04,Wunderground v.1.15,2013-05-08 17:25:00,
2013-05-08 13:30:00,59.0,56.7,30.03,ESE,110,2.0,2.0,92,0.10,,,0.04,Wunderground v.1.15,2013-05-08 17:30:00,
2013-05-08 13:36:00,59.3,57.3,30.03,ESE,122,2.0,5.0,93,0.05,,,0.04,Wunderground v.1.15,2013-05-08 17:36:00,
2013-05-08 13:41:00,59.7,57.7,30.02,SE,134,2.0,5.0,93,0.04,,,0.04,Wunderground v.1.15,2013-05-08 17:41:00,
2013-05-08 13:46:00,60.3,58.0,30.02,East,91,2.0,5.0,92,0.00,,,0.04,Wunderground v.1.15,2013-05-08 17:46:00,
2013-05-08 13:51:00,60.9,58.6,30.02,ESE,105,2.0,5.0,92,0.00,,,0.04,Wunderground v.1.15,2013-05-08 17:51:00,
2013-05-08 13:56:00,61.1,58.5,30.02,NE,45,2.0,5.0,91,0.00,,,0.04,Wunderground v.1.15,2013-05-08 17:56:00,
2013-05-08 14:01:00,61.6,58.6,30.02,East,91,3.0,5.0,90,0.00,,,0.04,Wunderground v.1.15,2013-05-08 18:01:00,
2013-05-08 14:06:00,62.2,58.6,30.02,SE,131,2.0,8.0,88,0.00,,,0.04,Wunderground v.1.15,2013-05-08 18:06:00,
2013-05-08 14:11:00,62.7,59.7,30.02,SE,139,2.0,5.0,90,0.00,,,0.04,Wunderground v.1.15,2013-05-08 18:11:00,
2013-05-08 14:16:00,63.4,58.8,30.01,ESE,109,2.0,5.0,85,0.00,,,0.04,Wunderground v.1.15,2013-05-08 18:16:00,
2013-05-08 14:21:00,63.4,58.8,30.01,East,101,3.0,5.0,85,0.00,,,0.04,Wunderground v.1.15,2013-05-08 18:21:00,
2013-05-08 14:26:00,63.1,58.2,30.01,NE,41,3.0,5.0,84,0.00,,,0.04,Wunderground v.1.15,2013-05-08 18:26:00,
2013-05-08 14:31:00,62.8,58.2,30.01,East,98,2.0,5.0,85,0.00,,,0.04,Wunderground v.1.15,2013-05-08 18:31:00,
2013-05-08 14:37:00,62.4,57.8,30.00,ENE,58,2.0,5.0,85,0.00,,,0.04,Wunderground v.1.15,2013-05-08 18:37:00,
2013-05-08 14:42:00,62.1,57.5,30.00,East,94,2.0,5.0,85,0.00,,,0.04,Wunderground v.1.15,2013-05-08 18:42:00,
2013-05-08 14:47:00,61.8,57.2,30.00,SW,214,3.0,5.0,85,0.00,,,0.04,Wunderground v.1.15,2013-05-08 18:47:00,
2013-05-08 14:52:00,61.3,57.1,30.00,ENE,75,3.0,7.0,86,0.00,,,0.04,Wunderground v.1.15,2013-05-08 18:52:00,
2013-05-08 14:57:00,60.9,57.0,30.00,ESE,103,3.0,7.0,87,0.00,,,0.04,Wunderground v.1.15,2013-05-08 18:57:00,
2013-05-08 15:03:00,60.4,56.8,30.00,East,96,3.0,8.0,88,0.00,,,0.04,Wunderground v.1.15,2013-05-08 19:03:00,
2013-05-08 15:08:00,60.2,56.9,30.00,NE,49,3.0,8.0,89,0.00,,,0.04,Wunderground v.1.15,2013-05-08 19:08:00,
2013-05-08 15:13:00,60.2,56.9,29.99,North,11,4.0,5.0,89,0.00,,,0.04,Wunderground v.1.15,2013-05-08 19:13:00,
2013-05-08 15:18:00,60.4,56.8,29.99,ENE,76,4.0,6.0,88,0.00,,,0.04,Wunderground v.1.15,2013-05-08 19:18:00,
2013-05-08 15:23:00,60.5,57.2,29.99,South,169,4.0,5.0,89,0.00,,,0.04,Wunderground v.1.15,2013-05-08 19:23:00,
2013-05-08 15:29:00,60.5,57.2,29.99,ENE,62,3.0,5.0,89,0.00,,,0.04,Wunderground v.1.15,2013-05-08 19:29:00,
2013-05-08 15:34:00,60.3,57.0,29.98,ENE,68,3.0,6.0,89,0.00,,,0.04,Wunderground v.1.15,2013-05-08 19:34:00,
2013-05-08 15:39:00,60.2,56.6,29.98,East,98,3.0,7.0,88,0.00,,,0.04,Wunderground v.1.15,2013-05-08 19:39:00,
2013-05-08 15:44:00,60.2,56.6,29.98,East,79,3.0,5.0,88,0.00,,,0.04,Wunderground v.1.15,2013-05-08 19:44:00,
2013-05-08 15:49:00,60.0,56.7,29.98,ENE,76,3.0,5.0,89,0.00,,,0.04,Wunderground v.1.15,2013-05-08 19:49:00,
2013-05-08 15:55:00,59.8,56.9,29.98,East,83,2.0,5.0,90,0.00,,,0.05,Wunderground v.1.15,2013-05-08 19:55:00,
2013-05-08 16:00:00,59.8,56.9,29.98,ENE,78,2.0,2.0,90,0.00,,,0.05,Wunderground v.1.15,2013-05-08 20:00:00,
2013-05-08 16:05:00,59.8,56.9,29.98,ENE,67,3.0,5.0,90,0.00,,,0.05,Wunderground v.1.15,2013-05-08 20:05:00,
2013-05-08 16:10:00,59.8,57.2,29.97,ESE,110,3.0,5.0,91,0.00,,,0.06,Wunderground v.1.15,2013-05-08 20:10:00,
2013-05-08 16:15:00,59.4,56.8,29.97,ESE,105,3.0,5.0,91,0.14,,,0.07,Wunderground v.1.15,2013-05-08 20:15:00,
2013-05-08 16:20:00,58.9,56.6,29.97,South,172,3.0,5.0,92,0.13,,,0.08,Wunderground v.1.15,2013-05-08 20:20:00,
2013-05-08 16:25:00,58.5,56.5,29.97,ENE,63,2.0,5.0,93,0.09,,,0.08,Wunderground v.1.15,2013-05-08 20:25:00,
2013-05-08 16:30:00,58.2,56.2,29.97,SSE,148,3.0,3.0,93,0.20,,,0.10,Wunderground v.1.15,2013-05-08 20:30:00,
2013-05-08 16:35:00,58.1,56.4,29.97,East,101,2.0,5.0,94,0.11,,,0.10,Wunderground v.1.15,2013-05-08 20:35:00,
2013-05-08 16:40:00,57.9,56.2,29.97,East,86,2.0,5.0,94,0.31,,,0.13,Wunderground v.1.15,2013-05-08 20:40:00,
2013-05-08 16:45:00,57.7,56.0,29.97,East,82,2.0,5.0,94,0.18,,,0.14,Wunderground v.1.15,2013-05-08 20:45:00,
2013-05-08 16:51:00,57.6,56.2,29.97,East,101,2.0,5.0,95,0.39,,,0.17,Wunderground v.1.15,2013-05-08 20:51:00,
2013-05-08 16:56:00,57.5,56.1,29.96,SE,128,3.0,5.0,95,0.20,,,0.19,Wunderground v.1.15,2013-05-08 20:56:00,
2013-05-08 17:01:00,57.6,56.2,29.96,ESE,102,3.0,5.0,95,0.14,,,0.20,Wunderground v.1.15,2013-05-08 21:01:00,
2013-05-08 17:06:00,57.6,56.2,29.96,East,88,2.0,5.0,95,0.08,,,0.21,Wunderground v.1.15,2013-05-08 21:06:00,
2013-05-08 17:11:00,57.9,56.8,29.96,East,80,2.0,5.0,96,0.08,,,0.21,Wunderground v.1.15,2013-05-08 21:11:00,
2013-05-08 17:17:00,58.2,56.8,29.96,ENE,63,3.0,6.0,95,0.05,,,0.21,Wunderground v.1.15,2013-05-08 21:17:00,
2013-05-08 17:22:00,58.6,57.2,29.96,ESE,103,4.0,5.0,95,0.00,,,0.21,Wunderground v.1.15,2013-05-08 21:22:00,
2013-05-08 17:27:00,58.8,57.4,29.96,ENE,63,3.0,9.0,95,0.00,,,0.21,Wunderground v.1.15,2013-05-08 21:27:00,
2013-05-08 17:32:00,59.3,57.9,29.96,SSE,162,3.0,5.0,95,0.00,,,0.21,Wunderground v.1.15,2013-05-08 21:32:00,
2013-05-08 17:37:00,59.5,58.1,29.96,SE,131,2.0,5.0,95,0.00,,,0.21,Wunderground v.1.15,2013-05-08 21:37:00,
2013-05-08 17:43:00,59.6,57.9,29.96,East,93,3.0,6.0,94,0.00,,,0.21,Wunderground v.1.15,2013-05-08 21:43:00,
2013-05-08 17:48:00,59.9,58.2,29.96,NNE,29,3.0,6.0,94,0.00,,,0.21,Wunderground v.1.15,2013-05-08 21:48:00,
2013-05-08 17:53:00,60.1,58.1,29.96,ESE,110,3.0,5.0,93,0.00,,,0.21,Wunderground v.1.15,2013-05-08 21:53:00,
2013-05-08 17:58:00,60.6,58.9,29.96,NE,50,2.0,5.0,94,0.00,,,0.21,Wunderground v.1.15,2013-05-08 21:58:00,
2013-05-08 18:03:00,60.7,58.7,29.95,SE,139,2.0,5.0,93,0.00,,,0.21,Wunderground v.1.15,2013-05-08 22:03:00,
2013-05-08 18:09:00,60.5,58.5,29.95,ENE,74,2.0,5.0,93,0.00,,,0.21,Wunderground v.1.15,2013-05-08 22:09:00,
2013-05-08 18:14:00,60.4,58.4,29.95,ENE,78,2.0,5.0,93,0.00,,,0.21,Wunderground v.1.15,2013-05-08 22:14:00,
2013-05-08 18:19:00,61.1,59.1,29.95,East,96,2.0,5.0,93,0.00,,,0.21,Wunderground v.1.15,2013-05-08 22:19:00,
2013-05-08 18:24:00,61.1,58.8,29.95,ESE,110,2.0,5.0,92,0.00,,,0.21,Wunderground v.1.15,2013-05-08 22:24:00,
2013-05-08 18:29:00,60.5,58.2,29.95,WSW,243,2.0,5.0,92,0.00,,,0.22,Wunderground v.1.15,2013-05-08 22:29:00,
2013-05-08 18:35:00,60.0,58.0,29.95,East,92,2.0,5.0,93,0.00,,,0.22,Wunderground v.1.15,2013-05-08 22:35:00,
2013-05-08 18:40:00,59.7,57.7,29.95,ESE,110,1.0,1.0,93,0.00,,,0.22,Wunderground v.1.15,2013-05-08 22:40:00,
2013-05-08 18:45:00,59.8,58.1,29.95,SE,131,1.0,5.0,94,0.00,,,0.22,Wunderground v.1.15,2013-05-08 22:45:00,
2013-05-08 18:50:00,59.7,57.7,29.94,ENE,57,2.0,5.0,93,0.00,,,0.22,Wunderground v.1.15,2013-05-08 22:50:00,
2013-05-08 18:55:00,59.7,57.7,29.94,SSE,155,2.0,5.0,93,0.00,,,0.22,Wunderground v.1.15,2013-05-08 22:55:00,
2013-05-08 19:01:00,59.6,57.6,29.94,ENE,68,2.0,5.0,93,0.00,,,0.22,Wunderground v.1.15,2013-05-08 23:01:00,
2013-05-08 19:06:00,59.4,57.4,29.94,East,100,1.0,5.0,93,0.00,,,0.22,Wunderground v.1.15,2013-05-08 23:06:00,
2013-05-08 19:11:00,59.3,57.3,29.94,East,84,1.0,5.0,93,0.00,,,0.22,Wunderground v.1.15,2013-05-08 23:11:00,
2013-05-08 19:16:00,59.3,57.3,29.94,ESE,112,1.0,5.0,93,0.00,,,0.22,Wunderground v.1.15,2013-05-08 23:16:00,
2013-05-08 19:21:00,59.2,57.2,29.94,ENE,77,1.0,5.0,93,0.00,,,0.22,Wunderground v.1.15,2013-05-08 23:21:00,
2013-05-08 19:27:00,59.1,57.1,29.94,ENE,63,1.0,5.0,93,0.00,,,0.22,Wunderground v.1.15,2013-05-08 23:27:00,
2013-05-08 19:32:00,58.8,56.8,29.94,ESE,110,2.0,5.0,93,0.00,,,0.22,Wunderground v.1.15,2013-05-08 23:32:00,
2013-05-08 19:37:00,58.6,56.6,29.93,SE,127,2.0,5.0,93,0.00,,,0.22,Wunderground v.1.15,2013-05-08 23:37:00,
2013-05-08 19:42:00,58.4,56.7,29.93,ENE,77,2.0,5.0,94,0.00,,,0.22,Wunderground v.1.15,2013-05-08 23:42:00,
2013-05-08 19:47:00,58.2,56.5,29.94,East,94,1.0,5.0,94,0.00,,,0.22,Wunderground v.1.15,2013-05-08 23:47:00,
2013-05-08 19:53:00,57.9,56.2,29.94,East,86,1.0,5.0,94,0.00,,,0.22,Wunderground v.1.15,2013-05-08 23:53:00,
2013-05-08 19:58:00,57.6,55.9,29.95,ESE,119,1.0,5.0,94,0.00,,,0.22,Wunderground v.1.15,2013-05-08 23:58:00,
2013-05-08 20:03:00,57.5,55.5,29.95,SSE,165,2.0,5.0,93,0.00,,,0.22,Wunderground v.1.15,2013-05-09 00:03:00,
2013-05-08 20:08:00,57.4,55.4,29.95,East,86,1.0,5.0,93,0.00,,,0.22,Wunderground v.1.15,2013-05-09 00:08:00,
2013-05-08 20:13:00,57.4,55.4,29.95,SE,135,1.0,5.0,93,0.00,,,0.22,Wunderground v.1.15,2013-05-09 00:13:00,
2013-05-08 20:18:00,57.4,55.4,29.95,SSE,150,1.0,5.0,93,0.00,,,0.22,Wunderground v.1.15,2013-05-09 00:18:00,
2013-05-08 20:23:00,57.4,55.4,29.95,SE,133,1.0,5.0,93,0.00,,,0.22,Wunderground v.1.15,2013-05-09 00:23:00,
2013-05-08 20:28:00,57.5,55.8,29.96,ESE,106,1.0,5.0,94,0.00,,,0.22,Wunderground v.1.15,2013-05-09 00:28:00,
2013-05-08 20:33:00,57.6,55.9,29.96,East,98,2.0,5.0,94,0.00,,,0.22,Wunderground v.1.15,2013-05-09 00:33:00,
2013-05-08 20:38:00,57.4,55.7,29.95,East,96,2.0,5.0,94,0.00,,,0.22,Wunderground v.1.15,2013-05-09 00:38:00,
2013-05-08 20:44:00,57.1,55.4,29.96,SE,124,1.0,5.0,94,0.00,,,0.22,Wunderground v.1.15,2013-05-09 00:44:00,
2013-05-08 20:49:00,56.9,55.2,29.96,East,98,1.0,5.0,94,0.00,,,0.22,Wunderground v.1.15,2013-05-09 00:49:00,
2013-05-08 20:54:00,56.7,55.0,29.96,SE,131,1.0,5.0,94,0.00,,,0.22,Wunderground v.1.15,2013-05-09 00:54:00,
2013-05-08 20:59:00,56.6,54.9,29.96,SE,129,1.0,5.0,94,0.00,,,0.22,Wunderground v.1.15,2013-05-09 00:59:00,
2013-05-08 21:04:00,56.5,54.8,29.97,ESE,118,1.0,5.0,94,0.00,,,0.22,Wunderground v.1.15,2013-05-09 01:04:00,
2013-05-08 21:09:00,56.4,54.7,29.97,East,96,1.0,5.0,94,0.00,,,0.22,Wunderground v.1.15,2013-05-09 01:09:00,
2013-05-08 21:15:00,56.3,54.3,29.97,East,96,1.0,5.0,93,0.00,,,0.22,Wunderground v.1.15,2013-05-09 01:15:00,
2013-05-08 21:20:00,56.3,54.3,29.97,East,96,1.0,5.0,93,0.00,,,0.22,Wunderground v.1.15,2013-05-09 01:20:00,
2013-05-08 21:25:00,56.1,54.1,29.97,SE,131,1.0,5.0,93,0.00,,,0.22,Wunderground v.1.15,2013-05-09 01:25:00,
2013-05-08 21:30:00,56.0,54.0,29.97,SW,230,0.0,5.0,93,0.00,,,0.22,Wunderground v.1.15,2013-05-09 01:30:00,
2013-05-08 21:35:00,55.8,53.8,29.97,SSE,159,0.0,5.0,93,0.00,,,0.22,Wunderground v.1.15,2013-05-09 01:35:00,
2013-05-08 21:41:00,55.5,53.5,29.97,SSE,158,0.0,5.0,93,0.00,,,0.22,Wunderground v.1.15,2013-05-09 01:41:00,
2013-05-08 21:46:00,55.3,53.3,29.98,South,181,0.0,5.0,93,0.00,,,0.22,Wunderground v.1.15,2013-05-09 01:46:00,
2013-05-08 21:51:00,55.0,53.3,29.98,SSE,153,1.0,5.0,94,0.00,,,0.22,Wunderground v.1.15,2013-05-09 01:51:00,
2013-05-08 21:56:00,54.8,53.1,29.98,SSW,199,0.0,5.0,94,0.00,,,0.22,Wunderground v.1.15,2013-05-09 01:56:00,
2013-05-08 22:01:00,54.5,52.8,29.98,SSW,199,0.0,5.0,94,0.00,,,0.22,Wunderground v.1.15,2013-05-09 02:01:00,
2013-05-08 22:07:00,54.1,52.7,29.98,SSW,198,0.0,5.0,95,0.00,,,0.22,Wunderground v.1.15,2013-05-09 02:07:00,
2013-05-08 22:12:00,53.7,52.0,29.98,SE,136,0.0,5.0,94,0.00,,,0.22,Wunderground v.1.15,2013-05-09 02:12:00,
2013-05-08 22:17:00,53.8,52.1,29.98,NNE,30,1.0,5.0,94,0.00,,,0.22,Wunderground v.1.15,2013-05-09 02:17:00,
2013-05-08 22:22:00,53.7,52.0,29.98,SE,136,1.0,5.0,94,0.00,,,0.22,Wunderground v.1.15,2013-05-09 02:22:00,
2013-05-08 22:27:00,53.6,51.6,29.98,ENE,60,1.0,5.0,93,0.00,,,0.22,Wunderground v.1.15,2013-05-09 02:27:00,
2013-05-08 22:33:00,53.5,51.2,29.98,ENE,75,1.0,5.0,92,0.00,,,0.22,Wunderground v.1.15,2013-05-09 02:33:00,
2013-05-08 22:38:00,53.4,51.1,29.98,SSE,149,1.0,5.0,92,0.00,,,0.22,Wunderground v.1.15,2013-05-09 02:38:00,
2013-05-08 22:43:00,53.7,51.1,29.98,East,86,1.0,5.0,91,0.00,,,0.22,Wunderground v.1.15,2013-05-09 02:43:00,
2013-05-08 22:48:00,53.7,51.1,29.98,NNE,27,1.0,5.0,91,0.00,,,0.22,Wunderground v.1.15,2013-05-09 02:48:00,
2013-05-08 22:53:00,53.7,51.1,29.98,SSW,205,1.0,5.0,91,0.00,,,0.22,Wunderground v.1.15,2013-05-09 02:53:00,
2013-05-08 22:59:00,54.1,51.2,29.98,ESE,120,2.0,5.0,90,0.00,,,0.22,Wunderground v.1.15,2013-05-09 02:59:00,
2013-05-08 23:04:00,54.3,51.1,29.98,South,190,2.0,5.0,89,0.00,,,0.22,Wunderground v.1.15,2013-05-09 03:04:00,
2013-05-08 23:09:00,53.9,50.7,29.98,NNE,29,0.0,5.0,89,0.00,,,0.22,Wunderground v.1.15,2013-05-09 03:09:00,
2013-05-08 23:14:00,53.5,50.3,29.98,SSW,205,0.0,5.0,89,0.00,,,0.22,Wunderground v.1.15,2013-05-09 03:14:00,
2013-05-08 23:19:00,53.5,50.3,29.98,ESE,115,1.0,5.0,89,0.00,,,0.22,Wunderground v.1.15,2013-05-09 03:19:00,
2013-05-08 23:25:00,53.4,50.2,29.98,ENE,58,1.0,5.0,89,0.00,,,0.22,Wunderground v.1.15,2013-05-09 03:25:00,
2013-05-08 23:30:00,53.1,50.2,29.98,SE,128,1.0,1.0,90,0.00,,,0.22,Wunderground v.1.15,2013-05-09 03:30:00,
2013-05-08 23:35:00,53.1,50.2,29.98,SE,124,1.0,5.0,90,0.00,,,0.22,Wunderground v.1.15,2013-05-09 03:35:00,
2013-05-08 23:40:00,53.1,49.9,29.97,NNW,338,1.0,5.0,89,0.00,,,0.22,Wunderground v.1.15,2013-05-09 03:40:00,
2013-05-08 23:45:00,53.0,49.8,29.97,North,5,1.0,5.0,89,0.00,,,0.22,Wunderground v.1.15,2013-05-09 03:45:00,
2013-05-08 23:51:00,52.9,49.7,29.97,NW,319,1.0,5.0,89,0.00,,,0.22,Wunderground v.1.15,2013-05-09 03:51:00,
2013-05-08 23:56:00,52.6,49.8,29.97,NW,319,0.0,5.0,90,0.00,,,0.22,Wunderground v.1.15,2013-05-09 03:56:00,